sensor_id;sensor_type;location;lat;lon;timestamp;P1;durP1;ratioP1;P2;durP2;ratioP2
25049;SDS011;13046;49.814;9.918;2022-12-07T00:00:06;19.88;;;14.00;;
25049;SDS011;13046;49.814;9.918;2022-12-07T00:02:33;18.92;;;14.32;;
25049;SDS011;13046;49.814;9.918;2022-12-07T00:04:59;16.75;;;14.55;;
25049;SDS011;13046;49.814;9.918;2022-12-07T00:07:25;21.17;;;14.88;;
25049;SDS011;13046;49.814;9.918;2022-12-07T00:09:51;18.83;;;14.35;;
25049;SDS011;13046;49.814;9.918;2022-12-07T00:12:17;37.30;;;21.15;;
25049;SDS011;13046;49.814;9.918;2022-12-07T00:14:43;23.67;;;18.02;;
25049;SDS011;13046;49.814;9.918;2022-12-07T00:17:09;22.25;;;15.70;;
25049;SDS011;13046;49.814;9.918;2022-12-07T00:19:35;38.03;;;22.05;;
25049;SDS011;13046;49.814;9.918;2022-12-07T00:22:01;24.98;;;19.08;;
25049;SDS011;13046;49.814;9.918;2022-12-07T00:24:27;22.83;;;16.67;;
25049;SDS011;13046;49.814;9.918;2022-12-07T00:26:53;21.63;;;16.25;;
25049;SDS011;13046;49.814;9.918;2022-12-07T00:29:19;22.60;;;17.27;;
25049;SDS011;13046;49.814;9.918;2022-12-07T00:31:46;21.73;;;16.40;;
25049;SDS011;13046;49.814;9.918;2022-12-07T00:34:17;22.05;;;16.73;;
25049;SDS011;13046;49.814;9.918;2022-12-07T00:36:44;21.15;;;16.15;;
25049;SDS011;13046;49.814;9.918;2022-12-07T00:39:10;21.17;;;17.13;;
25049;SDS011;13046;49.814;9.918;2022-12-07T00:41:36;22.38;;;16.95;;
25049;SDS011;13046;49.814;9.918;2022-12-07T00:44:02;20.67;;;14.93;;
25049;SDS011;13046;49.814;9.918;2022-12-07T00:46:28;22.73;;;16.98;;
25049;SDS011;13046;49.814;9.918;2022-12-07T00:48:55;30.38;;;17.10;;
25049;SDS011;13046;49.814;9.918;2022-12-07T00:51:22;24.30;;;15.73;;
25049;SDS011;13046;49.814;9.918;2022-12-07T00:53:48;23.52;;;16.63;;
25049;SDS011;13046;49.814;9.918;2022-12-07T00:56:15;21.48;;;16.25;;
25049;SDS011;13046;49.814;9.918;2022-12-07T00:58:42;22.67;;;15.95;;
25049;SDS011;13046;49.814;9.918;2022-12-07T01:01:10;22.67;;;14.50;;
25049;SDS011;13046;49.814;9.918;2022-12-07T01:03:37;23.08;;;15.15;;
25049;SDS011;13046;49.814;9.918;2022-12-07T01:06:03;23.02;;;16.17;;
25049;SDS011;13046;49.814;9.918;2022-12-07T01:08:29;22.08;;;16.70;;
25049;SDS011;13046;49.814;9.918;2022-12-07T01:11:06;20.23;;;14.50;;
25049;SDS011;13046;49.814;9.918;2022-12-07T01:13:35;23.10;;;15.18;;
25049;SDS011;13046;49.814;9.918;2022-12-07T01:16:03;24.50;;;16.02;;
25049;SDS011;13046;49.814;9.918;2022-12-07T01:18:29;19.98;;;14.80;;
25049;SDS011;13046;49.814;9.918;2022-12-07T01:23:24;24.23;;;15.10;;
25049;SDS011;13046;49.814;9.918;2022-12-07T01:25:54;21.27;;;15.32;;
25049;SDS011;13046;49.814;9.918;2022-12-07T01:28:20;24.63;;;16.10;;
25049;SDS011;13046;49.814;9.918;2022-12-07T01:30:54;22.58;;;16.70;;
25049;SDS011;13046;49.814;9.918;2022-12-07T01:35:46;21.33;;;15.00;;
25049;SDS011;13046;49.814;9.918;2022-12-07T01:38:12;22.20;;;15.23;;
25049;SDS011;13046;49.814;9.918;2022-12-07T01:40:38;25.73;;;16.48;;
25049;SDS011;13046;49.814;9.918;2022-12-07T01:43:08;24.00;;;15.07;;
25049;SDS011;13046;49.814;9.918;2022-12-07T01:45:38;22.92;;;16.10;;
25049;SDS011;13046;49.814;9.918;2022-12-07T01:48:04;23.50;;;15.20;;
25049;SDS011;13046;49.814;9.918;2022-12-07T01:50:31;23.38;;;15.50;;
25049;SDS011;13046;49.814;9.918;2022-12-07T01:52:57;23.60;;;16.10;;
25049;SDS011;13046;49.814;9.918;2022-12-07T01:55:24;24.45;;;15.70;;
25049;SDS011;13046;49.814;9.918;2022-12-07T01:57:52;22.45;;;15.95;;
25049;SDS011;13046;49.814;9.918;2022-12-07T02:00:19;28.25;;;16.55;;
25049;SDS011;13046;49.814;9.918;2022-12-07T02:02:46;24.80;;;15.10;;
25049;SDS011;13046;49.814;9.918;2022-12-07T02:05:13;25.58;;;15.48;;
25049;SDS011;13046;49.814;9.918;2022-12-07T02:07:39;25.00;;;15.75;;
25049;SDS011;13046;49.814;9.918;2022-12-07T02:10:12;23.48;;;15.20;;
25049;SDS011;13046;49.814;9.918;2022-12-07T02:12:38;27.30;;;17.13;;
25049;SDS011;13046;49.814;9.918;2022-12-07T02:15:05;27.35;;;16.90;;
25049;SDS011;13046;49.814;9.918;2022-12-07T02:28:04;23.98;;;15.82;;
25049;SDS011;13046;49.814;9.918;2022-12-07T02:30:31;28.40;;;17.90;;
25049;SDS011;13046;49.814;9.918;2022-12-07T02:33:05;26.88;;;15.95;;
25049;SDS011;13046;49.814;9.918;2022-12-07T02:35:39;24.42;;;15.45;;
25049;SDS011;13046;49.814;9.918;2022-12-07T02:38:17;22.67;;;16.05;;
25049;SDS011;13046;49.814;9.918;2022-12-07T02:40:48;27.00;;;16.83;;
25049;SDS011;13046;49.814;9.918;2022-12-07T02:45:45;24.55;;;15.85;;
25049;SDS011;13046;49.814;9.918;2022-12-07T02:48:12;26.60;;;17.60;;
25049;SDS011;13046;49.814;9.918;2022-12-07T02:50:44;26.02;;;15.82;;
25049;SDS011;13046;49.814;9.918;2022-12-07T02:55:55;26.63;;;16.02;;
25049;SDS011;13046;49.814;9.918;2022-12-07T03:00:51;29.65;;;18.70;;
25049;SDS011;13046;49.814;9.918;2022-12-07T03:03:18;26.88;;;16.63;;
25049;SDS011;13046;49.814;9.918;2022-12-07T03:11:14;27.98;;;17.83;;
25049;SDS011;13046;49.814;9.918;2022-12-07T03:13:49;28.80;;;16.98;;
25049;SDS011;13046;49.814;9.918;2022-12-07T03:16:18;29.38;;;16.75;;
25049;SDS011;13046;49.814;9.918;2022-12-07T03:18:47;31.25;;;17.70;;
25049;SDS011;13046;49.814;9.918;2022-12-07T03:21:18;28.33;;;16.52;;
25049;SDS011;13046;49.814;9.918;2022-12-07T03:23:45;26.33;;;17.02;;
25049;SDS011;13046;49.814;9.918;2022-12-07T03:26:13;27.42;;;17.77;;
25049;SDS011;13046;49.814;9.918;2022-12-07T03:28:42;28.50;;;16.95;;
25049;SDS011;13046;49.814;9.918;2022-12-07T03:31:17;26.08;;;17.65;;
25049;SDS011;13046;49.814;9.918;2022-12-07T03:34:29;30.20;;;18.42;;
25049;SDS011;13046;49.814;9.918;2022-12-07T03:36:43;32.38;;;18.92;;
25049;SDS011;13046;49.814;9.918;2022-12-07T03:39:19;24.63;;;16.30;;
25049;SDS011;13046;49.814;9.918;2022-12-07T03:41:47;30.15;;;17.60;;
25049;SDS011;13046;49.814;9.918;2022-12-07T03:44:14;32.53;;;17.95;;
25049;SDS011;13046;49.814;9.918;2022-12-07T03:49:25;24.60;;;16.75;;
25049;SDS011;13046;49.814;9.918;2022-12-07T03:51:57;29.30;;;18.88;;
25049;SDS011;13046;49.814;9.918;2022-12-07T03:54:28;26.42;;;16.75;;
25049;SDS011;13046;49.814;9.918;2022-12-07T03:56:56;26.60;;;18.08;;
25049;SDS011;13046;49.814;9.918;2022-12-07T03:59:23;27.17;;;16.98;;
25049;SDS011;13046;49.814;9.918;2022-12-07T04:01:57;28.17;;;17.60;;
25049;SDS011;13046;49.814;9.918;2022-12-07T04:04:23;27.00;;;16.15;;
25049;SDS011;13046;49.814;9.918;2022-12-07T04:06:50;31.98;;;18.60;;
25049;SDS011;13046;49.814;9.918;2022-12-07T04:09:16;29.50;;;18.88;;
25049;SDS011;13046;49.814;9.918;2022-12-07T04:11:42;28.50;;;19.05;;
25049;SDS011;13046;49.814;9.918;2022-12-07T04:14:08;28.90;;;17.27;;
25049;SDS011;13046;49.814;9.918;2022-12-07T04:16:54;31.45;;;17.65;;
25049;SDS011;13046;49.814;9.918;2022-12-07T04:19:30;28.85;;;16.67;;
25049;SDS011;13046;49.814;9.918;2022-12-07T04:21:57;24.80;;;17.23;;
25049;SDS011;13046;49.814;9.918;2022-12-07T04:24:23;26.23;;;17.30;;
25049;SDS011;13046;49.814;9.918;2022-12-07T04:26:50;27.58;;;17.27;;
25049;SDS011;13046;49.814;9.918;2022-12-07T04:29:16;30.65;;;18.73;;
25049;SDS011;13046;49.814;9.918;2022-12-07T04:31:42;30.92;;;18.30;;
25049;SDS011;13046;49.814;9.918;2022-12-07T04:34:09;29.20;;;17.42;;
25049;SDS011;13046;49.814;9.918;2022-12-07T04:36:35;25.08;;;16.02;;
25049;SDS011;13046;49.814;9.918;2022-12-07T04:39:01;28.73;;;17.83;;
25049;SDS011;13046;49.814;9.918;2022-12-07T04:41:27;28.13;;;17.67;;
25049;SDS011;13046;49.814;9.918;2022-12-07T04:43:54;26.45;;;16.05;;
25049;SDS011;13046;49.814;9.918;2022-12-07T04:46:21;26.77;;;17.50;;
25049;SDS011;13046;49.814;9.918;2022-12-07T04:48:47;28.95;;;16.67;;
25049;SDS011;13046;49.814;9.918;2022-12-07T04:51:14;26.40;;;16.83;;
25049;SDS011;13046;49.814;9.918;2022-12-07T04:53:41;26.95;;;16.33;;
25049;SDS011;13046;49.814;9.918;2022-12-07T04:56:07;26.27;;;16.50;;
25049;SDS011;13046;49.814;9.918;2022-12-07T04:58:33;26.38;;;16.23;;
25049;SDS011;13046;49.814;9.918;2022-12-07T05:00:59;27.63;;;17.00;;
25049;SDS011;13046;49.814;9.918;2022-12-07T05:03:25;24.38;;;14.63;;
25049;SDS011;13046;49.814;9.918;2022-12-07T05:05:51;24.25;;;16.45;;
25049;SDS011;13046;49.814;9.918;2022-12-07T05:08:17;27.83;;;16.13;;
25049;SDS011;13046;49.814;9.918;2022-12-07T05:10:43;32.45;;;17.42;;
25049;SDS011;13046;49.814;9.918;2022-12-07T05:13:09;26.90;;;16.77;;
25049;SDS011;13046;49.814;9.918;2022-12-07T05:15:35;23.25;;;14.77;;
25049;SDS011;13046;49.814;9.918;2022-12-07T05:18:01;25.77;;;16.20;;
25049;SDS011;13046;49.814;9.918;2022-12-07T05:20:28;25.85;;;15.60;;
25049;SDS011;13046;49.814;9.918;2022-12-07T05:22:54;24.42;;;14.27;;
25049;SDS011;13046;49.814;9.918;2022-12-07T05:25:20;25.20;;;15.02;;
25049;SDS011;13046;49.814;9.918;2022-12-07T05:27:46;30.65;;;17.05;;
25049;SDS011;13046;49.814;9.918;2022-12-07T05:30:12;22.63;;;15.43;;
25049;SDS011;13046;49.814;9.918;2022-12-07T05:32:38;24.52;;;14.18;;
25049;SDS011;13046;49.814;9.918;2022-12-07T05:35:04;32.00;;;15.30;;
25049;SDS011;13046;49.814;9.918;2022-12-07T05:37:30;24.85;;;13.35;;
25049;SDS011;13046;49.814;9.918;2022-12-07T05:39:56;20.02;;;14.38;;
25049;SDS011;13046;49.814;9.918;2022-12-07T05:42:24;22.88;;;13.88;;
25049;SDS011;13046;49.814;9.918;2022-12-07T05:44:50;22.48;;;13.20;;
25049;SDS011;13046;49.814;9.918;2022-12-07T05:47:16;19.00;;;11.77;;
25049;SDS011;13046;49.814;9.918;2022-12-07T05:49:42;20.73;;;14.35;;
25049;SDS011;13046;49.814;9.918;2022-12-07T05:52:08;20.77;;;12.40;;
25049;SDS011;13046;49.814;9.918;2022-12-07T05:54:34;20.38;;;13.65;;
25049;SDS011;13046;49.814;9.918;2022-12-07T05:57:00;24.15;;;18.02;;
25049;SDS011;13046;49.814;9.918;2022-12-07T05:59:26;21.65;;;14.00;;
25049;SDS011;13046;49.814;9.918;2022-12-07T06:04:18;19.95;;;14.20;;
25049;SDS011;13046;49.814;9.918;2022-12-07T06:06:45;24.58;;;14.02;;
25049;SDS011;13046;49.814;9.918;2022-12-07T06:09:11;23.42;;;14.02;;
25049;SDS011;13046;49.814;9.918;2022-12-07T06:11:37;24.40;;;14.88;;
25049;SDS011;13046;49.814;9.918;2022-12-07T06:14:23;27.88;;;16.35;;
25049;SDS011;13046;49.814;9.918;2022-12-07T06:16:49;20.73;;;13.02;;
25049;SDS011;13046;49.814;9.918;2022-12-07T06:19:15;24.80;;;15.20;;
25049;SDS011;13046;49.814;9.918;2022-12-07T06:21:42;28.65;;;17.02;;
25049;SDS011;13046;49.814;9.918;2022-12-07T06:24:08;25.40;;;14.77;;
25049;SDS011;13046;49.814;9.918;2022-12-07T06:26:35;27.50;;;16.42;;
25049;SDS011;13046;49.814;9.918;2022-12-07T06:29:01;22.92;;;14.40;;
25049;SDS011;13046;49.814;9.918;2022-12-07T06:31:27;29.67;;;14.88;;
25049;SDS011;13046;49.814;9.918;2022-12-07T06:33:57;24.67;;;14.60;;
25049;SDS011;13046;49.814;9.918;2022-12-07T06:36:23;28.27;;;15.90;;
25049;SDS011;13046;49.814;9.918;2022-12-07T06:38:49;29.48;;;16.73;;
25049;SDS011;13046;49.814;9.918;2022-12-07T06:41:15;30.25;;;17.15;;
25049;SDS011;13046;49.814;9.918;2022-12-07T06:43:41;26.42;;;16.92;;
25049;SDS011;13046;49.814;9.918;2022-12-07T06:46:07;28.35;;;18.48;;
25049;SDS011;13046;49.814;9.918;2022-12-07T06:48:33;26.92;;;16.08;;
25049;SDS011;13046;49.814;9.918;2022-12-07T06:50:59;30.30;;;17.52;;
25049;SDS011;13046;49.814;9.918;2022-12-07T06:53:25;25.98;;;16.40;;
25049;SDS011;13046;49.814;9.918;2022-12-07T06:55:52;28.55;;;16.88;;
25049;SDS011;13046;49.814;9.918;2022-12-07T06:58:18;26.60;;;15.88;;
25049;SDS011;13046;49.814;9.918;2022-12-07T07:00:44;29.42;;;16.40;;
25049;SDS011;13046;49.814;9.918;2022-12-07T07:03:10;28.42;;;17.48;;
25049;SDS011;13046;49.814;9.918;2022-12-07T07:05:37;32.67;;;18.05;;
25049;SDS011;13046;49.814;9.918;2022-12-07T07:08:03;27.65;;;16.52;;
25049;SDS011;13046;49.814;9.918;2022-12-07T07:10:29;28.05;;;15.82;;
25049;SDS011;13046;49.814;9.918;2022-12-07T07:12:55;27.40;;;16.45;;
25049;SDS011;13046;49.814;9.918;2022-12-07T07:15:22;27.55;;;16.17;;
25049;SDS011;13046;49.814;9.918;2022-12-07T07:17:48;24.75;;;14.98;;
25049;SDS011;13046;49.814;9.918;2022-12-07T07:20:14;29.10;;;16.23;;
25049;SDS011;13046;49.814;9.918;2022-12-07T07:22:40;23.88;;;13.73;;
25049;SDS011;13046;49.814;9.918;2022-12-07T07:25:06;24.38;;;14.85;;
25049;SDS011;13046;49.814;9.918;2022-12-07T07:27:32;22.30;;;14.32;;
25049;SDS011;13046;49.814;9.918;2022-12-07T07:29:59;22.45;;;13.85;;
25049;SDS011;13046;49.814;9.918;2022-12-07T07:32:33;22.85;;;14.85;;
25049;SDS011;13046;49.814;9.918;2022-12-07T07:34:59;22.35;;;13.60;;
25049;SDS011;13046;49.814;9.918;2022-12-07T07:37:25;24.02;;;15.18;;
25049;SDS011;13046;49.814;9.918;2022-12-07T07:39:51;24.90;;;13.65;;
25049;SDS011;13046;49.814;9.918;2022-12-07T07:42:17;24.67;;;14.50;;
25049;SDS011;13046;49.814;9.918;2022-12-07T07:44:45;23.45;;;15.15;;
25049;SDS011;13046;49.814;9.918;2022-12-07T07:47:11;27.05;;;14.35;;
25049;SDS011;13046;49.814;9.918;2022-12-07T07:49:37;23.13;;;14.07;;
25049;SDS011;13046;49.814;9.918;2022-12-07T07:52:04;22.73;;;13.50;;
25049;SDS011;13046;49.814;9.918;2022-12-07T07:54:31;23.67;;;15.13;;
25049;SDS011;13046;49.814;9.918;2022-12-07T07:56:57;20.05;;;13.73;;
25049;SDS011;13046;49.814;9.918;2022-12-07T07:59:23;20.00;;;13.55;;
25049;SDS011;13046;49.814;9.918;2022-12-07T08:01:50;21.13;;;12.93;;
25049;SDS011;13046;49.814;9.918;2022-12-07T08:04:16;20.13;;;12.82;;
25049;SDS011;13046;49.814;9.918;2022-12-07T08:06:42;18.10;;;12.05;;
25049;SDS011;13046;49.814;9.918;2022-12-07T08:09:08;18.88;;;13.13;;
25049;SDS011;13046;49.814;9.918;2022-12-07T08:11:35;23.40;;;14.55;;
25049;SDS011;13046;49.814;9.918;2022-12-07T08:14:01;24.83;;;14.40;;
25049;SDS011;13046;49.814;9.918;2022-12-07T08:16:27;25.20;;;14.93;;
25049;SDS011;13046;49.814;9.918;2022-12-07T08:18:54;22.08;;;13.40;;
25049;SDS011;13046;49.814;9.918;2022-12-07T08:21:20;24.55;;;16.15;;
25049;SDS011;13046;49.814;9.918;2022-12-07T08:23:46;23.65;;;15.43;;
25049;SDS011;13046;49.814;9.918;2022-12-07T08:26:13;25.33;;;14.48;;
25049;SDS011;13046;49.814;9.918;2022-12-07T08:28:40;25.05;;;15.30;;
25049;SDS011;13046;49.814;9.918;2022-12-07T08:31:07;24.77;;;14.77;;
25049;SDS011;13046;49.814;9.918;2022-12-07T08:33:33;30.65;;;15.93;;
25049;SDS011;13046;49.814;9.918;2022-12-07T08:36:03;29.73;;;16.10;;
25049;SDS011;13046;49.814;9.918;2022-12-07T08:38:30;23.98;;;14.57;;
25049;SDS011;13046;49.814;9.918;2022-12-07T08:40:57;25.15;;;14.77;;
25049;SDS011;13046;49.814;9.918;2022-12-07T08:43:23;23.13;;;14.40;;
25049;SDS011;13046;49.814;9.918;2022-12-07T08:48:24;23.05;;;15.82;;
25049;SDS011;13046;49.814;9.918;2022-12-07T08:50:50;26.15;;;18.88;;
25049;SDS011;13046;49.814;9.918;2022-12-07T08:53:17;26.55;;;17.10;;
25049;SDS011;13046;49.814;9.918;2022-12-07T08:55:44;27.83;;;17.25;;
25049;SDS011;13046;49.814;9.918;2022-12-07T08:58:10;24.70;;;15.40;;
25049;SDS011;13046;49.814;9.918;2022-12-07T09:00:36;28.20;;;16.58;;
25049;SDS011;13046;49.814;9.918;2022-12-07T09:03:02;36.38;;;18.27;;
25049;SDS011;13046;49.814;9.918;2022-12-07T09:05:28;26.77;;;16.63;;
25049;SDS011;13046;49.814;9.918;2022-12-07T09:07:55;25.02;;;16.05;;
25049;SDS011;13046;49.814;9.918;2022-12-07T09:10:23;21.73;;;15.77;;
25049;SDS011;13046;49.814;9.918;2022-12-07T09:12:49;24.83;;;16.25;;
25049;SDS011;13046;49.814;9.918;2022-12-07T09:15:15;29.77;;;16.23;;
25049;SDS011;13046;49.814;9.918;2022-12-07T09:17:41;24.50;;;16.83;;
25049;SDS011;13046;49.814;9.918;2022-12-07T09:20:07;24.98;;;17.27;;
25049;SDS011;13046;49.814;9.918;2022-12-07T09:22:33;24.75;;;16.17;;
25049;SDS011;13046;49.814;9.918;2022-12-07T09:24:59;25.60;;;16.65;;
25049;SDS011;13046;49.814;9.918;2022-12-07T09:27:25;26.67;;;18.08;;
25049;SDS011;13046;49.814;9.918;2022-12-07T09:29:52;26.65;;;16.95;;
25049;SDS011;13046;49.814;9.918;2022-12-07T09:32:18;37.72;;;18.90;;
25049;SDS011;13046;49.814;9.918;2022-12-07T09:34:44;31.63;;;17.85;;
25049;SDS011;13046;49.814;9.918;2022-12-07T09:37:10;24.60;;;16.70;;
25049;SDS011;13046;49.814;9.918;2022-12-07T09:39:39;25.10;;;17.70;;
25049;SDS011;13046;49.814;9.918;2022-12-07T09:42:06;23.35;;;16.63;;
25049;SDS011;13046;49.814;9.918;2022-12-07T09:44:32;23.42;;;15.63;;
25049;SDS011;13046;49.814;9.918;2022-12-07T09:46:59;23.48;;;17.02;;
25049;SDS011;13046;49.814;9.918;2022-12-07T09:49:25;36.72;;;19.40;;
25049;SDS011;13046;49.814;9.918;2022-12-07T09:52:00;40.08;;;25.35;;
25049;SDS011;13046;49.814;9.918;2022-12-07T09:54:27;36.35;;;24.02;;
25049;SDS011;13046;49.814;9.918;2022-12-07T09:56:54;75.10;;;44.08;;
25049;SDS011;13046;49.814;9.918;2022-12-07T09:59:20;34.92;;;20.90;;
25049;SDS011;13046;49.814;9.918;2022-12-07T10:01:47;51.17;;;35.38;;
25049;SDS011;13046;49.814;9.918;2022-12-07T10:06:40;18.83;;;14.27;;
25049;SDS011;13046;49.814;9.918;2022-12-07T10:09:13;21.90;;;16.95;;
25049;SDS011;13046;49.814;9.918;2022-12-07T10:14:24;22.55;;;15.35;;
25049;SDS011;13046;49.814;9.918;2022-12-07T10:16:52;22.80;;;15.45;;
25049;SDS011;13046;49.814;9.918;2022-12-07T10:19:29;19.58;;;14.95;;
25049;SDS011;13046;49.814;9.918;2022-12-07T10:22:09;23.98;;;14.10;;
25049;SDS011;13046;49.814;9.918;2022-12-07T10:24:36;22.25;;;15.45;;
25049;SDS011;13046;49.814;9.918;2022-12-07T10:27:04;27.35;;;16.55;;
25049;SDS011;13046;49.814;9.918;2022-12-07T10:29:32;23.17;;;15.43;;
25049;SDS011;13046;49.814;9.918;2022-12-07T10:31:59;19.73;;;13.95;;
25049;SDS011;13046;49.814;9.918;2022-12-07T10:34:30;20.30;;;14.77;;
25049;SDS011;13046;49.814;9.918;2022-12-07T10:44:42;18.23;;;13.25;;
25049;SDS011;13046;49.814;9.918;2022-12-07T10:47:12;31.20;;;19.35;;
25049;SDS011;13046;49.814;9.918;2022-12-07T10:59:53;21.75;;;14.45;;
25049;SDS011;13046;49.814;9.918;2022-12-07T11:02:32;17.08;;;12.63;;
25049;SDS011;13046;49.814;9.918;2022-12-07T11:05:11;19.67;;;14.13;;
25049;SDS011;13046;49.814;9.918;2022-12-07T11:10:19;22.95;;;14.73;;
25049;SDS011;13046;49.814;9.918;2022-12-07T11:18:16;17.95;;;12.85;;
25049;SDS011;13046;49.814;9.918;2022-12-07T11:34:27;20.80;;;15.10;;
25049;SDS011;13046;49.814;9.918;2022-12-07T11:36:56;17.60;;;14.13;;
25049;SDS011;13046;49.814;9.918;2022-12-07T11:41:50;15.70;;;12.95;;
25049;SDS011;13046;49.814;9.918;2022-12-07T11:51:42;16.83;;;12.25;;
25049;SDS011;13046;49.814;9.918;2022-12-07T11:54:16;17.50;;;12.48;;
25049;SDS011;13046;49.814;9.918;2022-12-07T11:56:43;17.48;;;12.85;;
25049;SDS011;13046;49.814;9.918;2022-12-07T11:59:13;25.65;;;22.45;;
25049;SDS011;13046;49.814;9.918;2022-12-07T12:01:52;16.95;;;13.38;;
25049;SDS011;13046;49.814;9.918;2022-12-07T12:07:06;15.27;;;11.93;;
25049;SDS011;13046;49.814;9.918;2022-12-07T12:09:34;18.42;;;11.40;;
25049;SDS011;13046;49.814;9.918;2022-12-07T12:12:20;15.95;;;11.60;;
25049;SDS011;13046;49.814;9.918;2022-12-07T12:18:10;16.10;;;11.75;;
25049;SDS011;13046;49.814;9.918;2022-12-07T12:22:41;16.00;;;10.70;;
25049;SDS011;13046;49.814;9.918;2022-12-07T12:25:16;14.57;;;10.55;;
25049;SDS011;13046;49.814;9.918;2022-12-07T12:27:45;13.18;;;10.55;;
25049;SDS011;13046;49.814;9.918;2022-12-07T12:30:33;13.55;;;10.50;;
25049;SDS011;13046;49.814;9.918;2022-12-07T12:33:28;14.82;;;11.20;;
25049;SDS011;13046;49.814;9.918;2022-12-07T12:51:42;15.68;;;12.48;;
25049;SDS011;13046;49.814;9.918;2022-12-07T12:54:10;15.88;;;11.38;;
25049;SDS011;13046;49.814;9.918;2022-12-07T12:56:40;14.55;;;10.73;;
25049;SDS011;13046;49.814;9.918;2022-12-07T12:59:30;13.60;;;10.85;;
25049;SDS011;13046;49.814;9.918;2022-12-07T13:01:56;15.20;;;11.35;;
25049;SDS011;13046;49.814;9.918;2022-12-07T13:05:14;15.68;;;10.32;;
25049;SDS011;13046;49.814;9.918;2022-12-07T13:07:54;15.65;;;11.50;;
25049;SDS011;13046;49.814;9.918;2022-12-07T13:13:37;14.40;;;12.18;;
25049;SDS011;13046;49.814;9.918;2022-12-07T13:15:48;16.83;;;12.55;;
25049;SDS011;13046;49.814;9.918;2022-12-07T13:20:54;22.88;;;13.82;;
25049;SDS011;13046;49.814;9.918;2022-12-07T13:26:09;13.32;;;10.52;;
25049;SDS011;13046;49.814;9.918;2022-12-07T13:28:39;15.32;;;10.73;;
25049;SDS011;13046;49.814;9.918;2022-12-07T13:31:11;17.60;;;9.52;;
25049;SDS011;13046;49.814;9.918;2022-12-07T13:33:38;15.00;;;10.20;;
25049;SDS011;13046;49.814;9.918;2022-12-07T13:36:04;14.73;;;10.50;;
25049;SDS011;13046;49.814;9.918;2022-12-07T13:38:36;13.43;;;9.75;;
25049;SDS011;13046;49.814;9.918;2022-12-07T13:41:04;14.63;;;11.10;;
25049;SDS011;13046;49.814;9.918;2022-12-07T13:43:31;16.25;;;12.13;;
25049;SDS011;13046;49.814;9.918;2022-12-07T13:45:57;21.70;;;18.48;;
25049;SDS011;13046;49.814;9.918;2022-12-07T13:48:36;15.77;;;11.55;;
25049;SDS011;13046;49.814;9.918;2022-12-07T13:51:14;14.20;;;10.65;;
25049;SDS011;13046;49.814;9.918;2022-12-07T13:53:49;16.08;;;11.52;;
25049;SDS011;13046;49.814;9.918;2022-12-07T13:56:15;15.55;;;11.63;;
25049;SDS011;13046;49.814;9.918;2022-12-07T13:58:41;14.93;;;11.20;;
25049;SDS011;13046;49.814;9.918;2022-12-07T14:01:08;15.48;;;10.70;;
25049;SDS011;13046;49.814;9.918;2022-12-07T14:03:34;14.70;;;10.80;;
25049;SDS011;13046;49.814;9.918;2022-12-07T14:06:06;13.77;;;11.55;;
25049;SDS011;13046;49.814;9.918;2022-12-07T14:08:32;11.70;;;9.85;;
25049;SDS011;13046;49.814;9.918;2022-12-07T14:10:59;13.43;;;9.65;;
25049;SDS011;13046;49.814;9.918;2022-12-07T14:15:52;13.05;;;9.90;;
25049;SDS011;13046;49.814;9.918;2022-12-07T14:18:26;14.02;;;9.40;;
25049;SDS011;13046;49.814;9.918;2022-12-07T14:21:02;11.75;;;9.18;;
25049;SDS011;13046;49.814;9.918;2022-12-07T14:23:29;16.10;;;10.13;;
25049;SDS011;13046;49.814;9.918;2022-12-07T14:26:04;13.65;;;9.65;;
25049;SDS011;13046;49.814;9.918;2022-12-07T14:28:32;12.85;;;6.95;;
25049;SDS011;13046;49.814;9.918;2022-12-07T14:30:59;8.95;;;6.85;;
25049;SDS011;13046;49.814;9.918;2022-12-07T14:33:27;9.38;;;7.50;;
25049;SDS011;13046;49.814;9.918;2022-12-07T14:35:54;8.90;;;6.70;;
25049;SDS011;13046;49.814;9.918;2022-12-07T14:38:23;11.02;;;6.90;;
25049;SDS011;13046;49.814;9.918;2022-12-07T14:40:51;9.20;;;7.50;;
25049;SDS011;13046;49.814;9.918;2022-12-07T14:43:19;11.95;;;7.50;;
25049;SDS011;13046;49.814;9.918;2022-12-07T14:45:47;9.93;;;8.05;;
25049;SDS011;13046;49.814;9.918;2022-12-07T14:48:14;13.73;;;9.38;;
25049;SDS011;13046;49.814;9.918;2022-12-07T14:50:51;11.10;;;8.27;;
25049;SDS011;13046;49.814;9.918;2022-12-07T14:53:21;17.13;;;8.73;;
25049;SDS011;13046;49.814;9.918;2022-12-07T14:55:50;11.25;;;8.80;;
25049;SDS011;13046;49.814;9.918;2022-12-07T14:58:17;11.38;;;8.30;;
25049;SDS011;13046;49.814;9.918;2022-12-07T15:00:43;15.05;;;9.00;;
25049;SDS011;13046;49.814;9.918;2022-12-07T15:03:09;9.05;;;7.55;;
25049;SDS011;13046;49.814;9.918;2022-12-07T15:05:37;15.38;;;11.25;;
25049;SDS011;13046;49.814;9.918;2022-12-07T15:08:04;13.77;;;10.75;;
25049;SDS011;13046;49.814;9.918;2022-12-07T15:10:31;13.52;;;9.48;;
25049;SDS011;13046;49.814;9.918;2022-12-07T15:13:01;13.27;;;10.90;;
25049;SDS011;13046;49.814;9.918;2022-12-07T15:15:46;14.60;;;10.18;;
25049;SDS011;13046;49.814;9.918;2022-12-07T15:18:13;16.73;;;10.52;;
25049;SDS011;13046;49.814;9.918;2022-12-07T15:20:39;14.70;;;10.30;;
25049;SDS011;13046;49.814;9.918;2022-12-07T15:23:05;13.38;;;11.23;;
25049;SDS011;13046;49.814;9.918;2022-12-07T15:25:31;13.02;;;11.00;;
25049;SDS011;13046;49.814;9.918;2022-12-07T15:27:57;12.88;;;9.73;;
25049;SDS011;13046;49.814;9.918;2022-12-07T15:30:23;21.98;;;16.77;;
25049;SDS011;13046;49.814;9.918;2022-12-07T15:32:49;28.42;;;20.48;;
25049;SDS011;13046;49.814;9.918;2022-12-07T15:35:16;38.63;;;22.17;;
25049;SDS011;13046;49.814;9.918;2022-12-07T15:37:42;21.17;;;16.55;;
25049;SDS011;13046;49.814;9.918;2022-12-07T15:40:08;21.35;;;14.93;;
25049;SDS011;13046;49.814;9.918;2022-12-07T15:42:35;20.75;;;14.23;;
25049;SDS011;13046;49.814;9.918;2022-12-07T15:45:01;18.90;;;13.77;;
25049;SDS011;13046;49.814;9.918;2022-12-07T15:47:34;16.33;;;13.63;;
25049;SDS011;13046;49.814;9.918;2022-12-07T15:50:02;24.45;;;18.55;;
25049;SDS011;13046;49.814;9.918;2022-12-07T15:52:29;23.85;;;16.95;;
25049;SDS011;13046;49.814;9.918;2022-12-07T15:54:55;20.83;;;15.63;;
25049;SDS011;13046;49.814;9.918;2022-12-07T15:57:21;18.42;;;13.45;;
25049;SDS011;13046;49.814;9.918;2022-12-07T15:59:47;25.65;;;15.30;;
25049;SDS011;13046;49.814;9.918;2022-12-07T16:02:13;20.15;;;14.05;;
25049;SDS011;13046;49.814;9.918;2022-12-07T16:04:40;22.77;;;14.90;;
25049;SDS011;13046;49.814;9.918;2022-12-07T16:07:06;20.45;;;17.55;;
25049;SDS011;13046;49.814;9.918;2022-12-07T16:09:32;12.60;;;10.70;;
25049;SDS011;13046;49.814;9.918;2022-12-07T16:11:58;16.48;;;11.88;;
25049;SDS011;13046;49.814;9.918;2022-12-07T16:14:25;13.77;;;9.60;;
25049;SDS011;13046;49.814;9.918;2022-12-07T16:16:51;8.68;;;7.00;;
25049;SDS011;13046;49.814;9.918;2022-12-07T16:19:17;14.13;;;8.55;;
25049;SDS011;13046;49.814;9.918;2022-12-07T16:21:43;9.00;;;6.07;;
25049;SDS011;13046;49.814;9.918;2022-12-07T16:24:09;11.45;;;6.18;;
25049;SDS011;13046;49.814;9.918;2022-12-07T16:26:35;6.38;;;4.85;;
25049;SDS011;13046;49.814;9.918;2022-12-07T16:29:02;7.22;;;4.70;;
25049;SDS011;13046;49.814;9.918;2022-12-07T16:31:28;8.02;;;4.43;;
25049;SDS011;13046;49.814;9.918;2022-12-07T16:33:55;4.60;;;3.45;;